createdAt,value
2022-09-28T00:02:26.787Z,64.08
2022-09-28T00:04:53.785Z,64.01
2022-09-28T00:07:20.733Z,64.17
2022-09-28T00:09:47.763Z,63.88
2022-09-28T00:12:14.923Z,63.67
2022-09-28T00:14:43.444Z,63.61
2022-09-28T00:17:12.403Z,63.95
2022-09-28T00:19:40.586Z,64.22
2022-09-28T00:22:07.571Z,64.26
2022-09-28T00:24:34.563Z,64.01
2022-09-28T00:27:03.085Z,63.92
2022-09-28T00:29:31.964Z,63.44
2022-09-28T00:32:05.223Z,63.71
2022-09-28T00:34:46.179Z,64.08
2022-09-28T00:37:15.346Z,63.93
2022-09-28T00:39:42.342Z,63.97
2022-09-28T00:42:15.487Z,63.93
2022-09-28T00:44:59.323Z,64.37
2022-09-28T00:47:44.583Z,64.44
2022-09-28T00:50:27.108Z,64.15
2022-09-28T00:53:12.543Z,64.31
2022-09-28T00:55:44.783Z,64.00
2022-09-28T00:58:15.403Z,64.18
2022-09-28T01:00:42.853Z,64.23
2022-09-28T01:03:10.543Z,63.73
2022-09-28T01:05:39.944Z,63.59
2022-09-28T01:08:08.992Z,63.47
2022-09-28T01:10:36.027Z,63.41
2022-09-28T01:13:03.182Z,63.10
2022-09-28T01:15:31.392Z,62.77
2022-09-28T01:18:19.284Z,62.45
2022-09-28T01:20:57.386Z,62.44
2022-09-28T01:23:59.703Z,62.79
2022-09-28T01:26:44.263Z,63.38
2022-09-28T01:29:21.426Z,63.93
2022-09-28T01:32:06.888Z,63.87
2022-09-28T01:34:47.163Z,63.64
2022-09-28T01:37:19.863Z,64.20
2022-09-28T01:39:50.384Z,64.29
2022-09-28T01:42:24.283Z,63.97
2022-09-28T01:44:54.703Z,64.05
2022-09-28T01:47:24.344Z,64.26
2022-09-28T01:49:59.462Z,64.25
2022-09-28T01:52:34.524Z,64.56
2022-09-28T01:55:31.166Z,64.43
2022-09-28T01:58:05.864Z,64.46
2022-09-28T02:00:36.459Z,64.49
2022-09-28T02:03:14.031Z,64.58
2022-09-28T02:05:55.704Z,64.75
2022-09-28T02:08:33.650Z,64.77
2022-09-28T02:11:05.142Z,64.27
2022-09-28T02:13:37.783Z,63.97
2022-09-28T02:16:31.622Z,64.29
2022-09-28T02:18:59.043Z,64.04
2022-09-28T02:21:54.686Z,63.95
2022-09-28T02:24:37.805Z,63.94
2022-09-28T02:27:15.883Z,64.07
2022-09-28T02:29:43.324Z,63.97
2022-09-28T02:32:11.443Z,64.27
2022-09-28T02:34:38.605Z,64.18
2022-09-28T02:37:05.983Z,64.49
2022-09-28T02:39:33.104Z,64.60
2022-09-28T02:42:00.065Z,64.40
2022-09-28T02:44:40.849Z,64.58
2022-09-28T02:47:23.193Z,64.37
2022-09-28T02:50:09.684Z,64.65
2022-09-28T02:53:14.527Z,64.73
2022-09-28T02:56:16.683Z,64.43
2022-09-28T02:58:58.903Z,64.91
2022-09-28T03:01:40.011Z,64.71
2022-09-28T03:04:13.063Z,65.01
2022-09-28T03:06:57.724Z,65.03
2022-09-28T03:09:37.763Z,65.02
2022-09-28T03:12:14.364Z,65.03
2022-09-28T03:14:42.396Z,65.11
2022-09-28T03:17:09.563Z,65.28
2022-09-28T03:19:37.331Z,65.27
2022-09-28T03:22:05.850Z,65.04
2022-09-28T03:24:33.123Z,64.41
2022-09-28T03:27:00.164Z,64.56
2022-09-28T03:29:27.207Z,64.81
2022-09-28T03:32:00.101Z,64.73
2022-09-28T03:34:27.232Z,64.83
2022-09-28T03:36:54.603Z,65.21
2022-09-28T03:39:21.651Z,65.03
2022-09-28T03:41:48.604Z,64.90
2022-09-28T03:44:17.766Z,64.77
2022-09-28T03:46:44.924Z,65.07
2022-09-28T03:49:12.103Z,64.74
2022-09-28T03:51:39.071Z,64.25
2022-09-28T03:54:06.173Z,64.18
2022-09-28T03:56:33.569Z,64.25
2022-09-28T03:59:03.697Z,64.56
2022-09-28T04:01:32.765Z,64.38
2022-09-28T04:04:00.345Z,64.54
2022-09-28T04:06:27.726Z,64.31
2022-09-28T04:08:54.883Z,64.62
2022-09-28T04:11:21.943Z,64.79
2022-09-28T04:13:52.605Z,64.92
2022-09-28T04:16:19.869Z,64.70
2022-09-28T04:19:09.336Z,64.80
2022-09-28T04:21:52.386Z,64.42
2022-09-28T04:24:20.509Z,64.73
2022-09-28T04:26:47.682Z,64.52
2022-09-28T04:29:17.867Z,64.67
2022-09-28T04:32:06.041Z,64.92
2022-09-28T04:34:38.777Z,64.62
2022-09-28T04:37:09.138Z,64.64
2022-09-28T04:39:38.440Z,64.87
2022-09-28T04:42:06.377Z,65.05
2022-09-28T04:44:33.408Z,65.15
2022-09-28T04:47:06.427Z,65.17
2022-09-28T04:49:35.671Z,64.82
2022-09-28T04:52:18.681Z,65.42
2022-09-28T04:54:48.807Z,65.76
2022-09-28T04:57:16.664Z,65.35
2022-09-28T04:59:43.745Z,65.85
2022-09-28T05:02:11.076Z,66.07
2022-09-28T05:04:59.089Z,65.92
2022-09-28T05:07:34.863Z,65.80
2022-09-28T05:10:04.459Z,65.90
2022-09-28T05:12:32.972Z,66.48
2022-09-28T05:15:00.787Z,66.41
2022-09-28T05:17:28.024Z,66.53
2022-09-28T05:20:21.045Z,66.35
2022-09-28T05:22:48.134Z,66.54
2022-09-28T05:25:15.247Z,66.64
2022-09-28T05:28:08.653Z,66.30
2022-09-28T05:31:02.390Z,66.51
2022-09-28T05:33:47.775Z,66.61
2022-09-28T05:36:14.915Z,66.16
2022-09-28T05:38:43.106Z,66.52
2022-09-28T05:41:10.136Z,66.13
2022-09-28T05:43:38.571Z,65.59
2022-09-28T05:46:06.737Z,65.72
2022-09-28T05:48:36.004Z,65.91
2022-09-28T05:51:03.194Z,65.42
2022-09-28T05:53:30.453Z,64.11
2022-09-28T05:55:59.896Z,63.12
2022-09-28T05:58:28.508Z,62.77
2022-09-28T06:00:56.577Z,62.73
2022-09-28T06:03:24.439Z,62.48
2022-09-28T06:05:51.746Z,62.21
2022-09-28T06:08:18.764Z,62.18
2022-09-28T06:10:51.775Z,62.35
2022-09-28T06:13:18.837Z,61.93
2022-09-28T06:15:46.575Z,61.87
2022-09-28T06:18:15.171Z,62.05
2022-09-28T06:21:01.316Z,61.67
2022-09-28T06:23:33.024Z,61.84
2022-09-28T06:26:00.477Z,62.48
2022-09-28T06:28:27.944Z,62.61
2022-09-28T06:30:56.080Z,62.64
2022-09-28T06:33:25.628Z,62.59
2022-09-28T06:35:53.452Z,62.58
2022-09-28T06:38:20.613Z,62.64
2022-09-28T06:40:49.044Z,62.08
2022-09-28T06:43:16.316Z,62.19
2022-09-28T06:46:02.864Z,62.26
2022-09-28T06:48:50.137Z,62.08
2022-09-28T06:51:37.118Z,62.34
2022-09-28T06:54:20.006Z,63.21
2022-09-28T06:56:50.479Z,62.99
2022-09-28T06:59:19.294Z,62.12
2022-09-28T07:01:46.957Z,61.91
2022-09-28T07:04:28.187Z,61.72
2022-09-28T07:07:14.348Z,62.16
2022-09-28T07:10:01.470Z,62.54
2022-09-28T07:12:37.481Z,62.66
2022-09-28T07:15:20.621Z,63.29
2022-09-28T07:18:00.344Z,62.92
2022-09-28T07:20:30.114Z,62.23
2022-09-28T07:23:14.693Z,61.84
2022-09-28T07:26:24.800Z,61.28
2022-09-28T07:29:13.365Z,61.28
2022-09-28T07:31:58.737Z,61.39
2022-09-28T07:34:43.925Z,61.62
2022-09-28T07:37:46.757Z,61.14
2022-09-28T07:40:32.595Z,60.61
2022-09-28T07:43:07.279Z,60.69
2022-09-28T07:45:36.817Z,60.59
2022-09-28T07:48:04.339Z,60.34
2022-09-28T07:50:55.296Z,59.49
2022-09-28T07:53:40.987Z,58.71
2022-09-28T07:56:35.058Z,59.39
2022-09-28T07:59:08.044Z,58.29
2022-09-28T08:01:53.689Z,58.53
2022-09-28T08:04:21.087Z,57.33
2022-09-28T08:06:48.527Z,57.93
2022-09-28T08:09:15.644Z,56.76
2022-09-28T08:12:19.886Z,57.38
2022-09-28T08:15:23.103Z,57.29
2022-09-28T08:18:00.515Z,56.65
2022-09-28T08:20:51.594Z,56.85
2022-09-28T08:23:20.168Z,56.87
2022-09-28T08:25:49.267Z,55.89
2022-09-28T08:28:18.226Z,55.38
2022-09-28T08:30:48.268Z,55.36
2022-09-28T08:33:27.698Z,55.27
2022-09-28T08:36:13.505Z,55.43
2022-09-28T08:39:03.248Z,56.23
2022-09-28T08:42:21.389Z,55.78
2022-09-28T08:45:28.946Z,55.32
2022-09-28T08:48:42.636Z,54.24
2022-09-28T08:51:46.095Z,54.36
2022-09-28T08:54:30.828Z,53.88
2022-09-28T08:57:12.565Z,53.93
2022-09-28T08:59:48.664Z,53.34
2022-09-28T09:02:25.929Z,52.82
2022-09-28T09:04:58.351Z,52.34
2022-09-28T09:08:11.114Z,52.35
2022-09-28T09:10:51.045Z,51.91
2022-09-28T09:13:55.244Z,50.46
2022-09-28T09:17:00.005Z,50.74
2022-09-28T09:19:55.153Z,50.58
2022-09-28T09:23:06.345Z,50.92
2022-09-28T09:25:46.475Z,51.17
2022-09-28T09:28:42.253Z,51.87
2022-09-28T09:31:52.098Z,51.64
2022-09-28T09:34:43.182Z,51.71
2022-09-28T09:37:40.898Z,52.14
2022-09-28T09:40:49.465Z,52.33
2022-09-28T09:44:00.524Z,52.62
2022-09-28T09:47:08.259Z,52.96
2022-09-28T09:50:35.725Z,52.82
2022-09-28T09:53:24.497Z,53.31
2022-09-28T09:55:58.719Z,54.06
2022-09-28T09:58:46.360Z,54.86
2022-09-28T10:01:29.789Z,54.22
2022-09-28T10:04:39.891Z,53.66
2022-09-28T10:07:31.988Z,52.85
2022-09-28T10:10:02.590Z,52.72
2022-09-28T10:12:41.315Z,52.83
2022-09-28T10:15:15.489Z,53.16
2022-09-28T10:17:58.483Z,52.71
2022-09-28T10:20:51.489Z,53.27
2022-09-28T10:23:34.078Z,53.74
2022-09-28T10:26:07.730Z,54.05
2022-09-28T10:28:48.416Z,53.48
2022-09-28T10:31:38.804Z,53.71
2022-09-28T10:34:17.321Z,53.34
2022-09-28T10:36:53.170Z,53.00
2022-09-28T10:39:50.991Z,53.54
2022-09-28T10:42:26.000Z,54.18
2022-09-28T10:45:05.480Z,54.63
2022-09-28T10:47:35.821Z,54.24
2022-09-28T10:50:20.679Z,53.85
2022-09-28T10:52:48.415Z,54.07
2022-09-28T10:55:59.409Z,53.02
2022-09-28T10:58:40.656Z,53.56
2022-09-28T11:13:30.369Z,54.07
2022-09-28T11:16:05.611Z,53.87
2022-09-28T11:18:35.552Z,53.42
2022-09-28T11:21:15.072Z,53.81
2022-09-28T11:24:06.621Z,52.81
2022-09-28T11:26:43.768Z,51.93
2022-09-28T11:29:34.969Z,51.40
2022-09-28T11:32:22.060Z,50.20
2022-09-28T11:35:22.466Z,48.91
2022-09-28T11:38:19.509Z,47.78
2022-09-28T11:41:29.463Z,47.81
2022-09-28T11:44:28.184Z,47.96
2022-09-28T11:47:28.140Z,48.36
2022-09-28T11:50:25.758Z,49.13
2022-09-28T11:53:13.027Z,48.62
2022-09-28T11:55:50.029Z,49.01
2022-09-28T11:58:33.755Z,48.39
2022-09-28T12:01:28.025Z,47.23
2022-09-28T12:04:31.821Z,46.54
2022-09-28T12:07:11.229Z,44.62
2022-09-28T12:09:46.110Z,43.82
2022-09-28T12:12:32.888Z,42.75
2022-09-28T12:15:12.828Z,42.29
2022-09-28T12:17:45.964Z,41.80
2022-09-28T12:20:38.626Z,41.47
2022-09-28T12:23:12.475Z,40.20
2022-09-28T12:25:47.020Z,40.64
2022-09-28T12:28:28.810Z,39.42
2022-09-28T12:31:06.496Z,39.10
2022-09-28T12:33:33.623Z,39.28
2022-09-28T12:36:30.511Z,37.85
2022-09-28T12:39:18.056Z,37.04
2022-09-28T12:42:17.260Z,37.92
2022-09-28T12:44:57.218Z,37.72
2022-09-28T12:47:44.769Z,38.35
2022-09-28T12:50:39.630Z,37.50
2022-09-28T12:53:14.243Z,37.80
2022-09-28T12:55:59.259Z,38.37
2022-09-28T12:58:29.023Z,38.66
2022-09-28T13:01:01.931Z,38.70
2022-09-28T13:03:45.994Z,39.29
2022-09-28T13:06:28.373Z,38.89
2022-09-28T13:09:17.361Z,39.59
2022-09-28T13:12:09.220Z,40.17
2022-09-28T13:14:54.283Z,41.21
2022-09-28T13:17:40.119Z,41.94
2022-09-28T13:20:18.322Z,41.85
2022-09-28T13:22:49.793Z,42.49
2022-09-28T13:25:20.703Z,43.29
2022-09-28T13:28:06.029Z,43.86
2022-09-28T13:30:36.591Z,44.63
2022-09-28T13:33:07.591Z,45.13
2022-09-28T13:35:35.170Z,45.84
2022-09-28T13:38:21.061Z,45.75
2022-09-28T13:41:06.943Z,46.42
2022-09-28T13:43:36.891Z,47.00
2022-09-28T13:46:20.611Z,46.72
2022-09-28T13:49:16.831Z,47.29
2022-09-28T13:52:17.150Z,48.03
2022-09-28T13:55:17.520Z,50.07
2022-09-28T13:58:21.305Z,49.69
2022-09-28T14:01:01.438Z,51.08
2022-09-28T14:03:37.351Z,50.53
2022-09-28T14:06:11.178Z,50.90
2022-09-28T14:09:05.769Z,51.64
2022-09-28T14:11:34.514Z,51.75
2022-09-28T14:14:14.387Z,52.62
2022-09-28T14:16:42.540Z,52.31
2022-09-28T14:19:21.871Z,52.50
2022-09-28T14:21:58.551Z,52.77
2022-09-28T14:24:37.659Z,53.57
2022-09-28T14:27:34.830Z,53.76
2022-09-28T14:30:14.271Z,53.43
2022-09-28T14:32:46.590Z,53.47
2022-09-28T14:35:36.671Z,53.74
2022-09-28T14:38:44.410Z,53.54
2022-09-28T14:41:18.249Z,54.71
2022-09-28T14:43:45.163Z,55.58
2022-09-28T14:46:12.404Z,56.08
2022-09-28T14:48:53.993Z,56.54
2022-09-28T14:51:27.162Z,56.84
2022-09-28T14:54:00.583Z,56.17
2022-09-28T14:56:32.710Z,56.08
2022-09-28T14:59:00.861Z,56.23
2022-09-28T15:01:28.084Z,56.10
2022-09-28T15:03:59.236Z,55.74
2022-09-28T15:06:52.053Z,56.44
2022-09-28T15:09:30.555Z,57.28
2022-09-28T15:12:18.281Z,56.37
2022-09-28T15:14:51.501Z,57.58
2022-09-28T15:17:34.612Z,58.48
2022-09-28T15:20:30.671Z,57.60
2022-09-28T15:22:59.834Z,57.54
2022-09-28T15:25:29.765Z,59.32
2022-09-28T15:27:59.311Z,58.67
2022-09-28T15:30:32.489Z,58.95
2022-09-28T15:33:20.000Z,59.30
2022-09-28T15:36:02.294Z,58.79
2022-09-28T15:38:31.448Z,58.04
2022-09-28T15:40:58.883Z,59.25
2022-09-28T15:43:33.389Z,58.99
2022-09-28T15:46:13.756Z,58.96
2022-09-28T15:48:59.757Z,59.22
2022-09-28T15:51:28.674Z,59.24
2022-09-28T15:54:01.569Z,59.50
2022-09-28T15:56:29.192Z,59.61
2022-09-28T15:59:25.721Z,59.96
2022-09-28T16:02:10.089Z,59.17
2022-09-28T16:04:48.371Z,59.54
2022-09-28T16:07:19.729Z,60.06
2022-09-28T16:09:56.972Z,60.72
2022-09-28T16:12:25.441Z,60.00
2022-09-28T16:14:54.519Z,60.79
2022-09-28T16:17:33.822Z,60.72
2022-09-28T16:20:29.669Z,60.54
2022-09-28T16:23:06.082Z,61.11
2022-09-28T16:25:37.309Z,60.98
2022-09-28T16:28:05.770Z,61.21
2022-09-28T16:30:34.303Z,61.95
2022-09-28T16:33:25.913Z,62.22
2022-09-28T16:35:52.990Z,62.37
2022-09-28T16:38:20.654Z,62.51
2022-09-28T16:40:54.848Z,63.10
2022-09-28T16:43:27.177Z,62.99
2022-09-28T16:46:00.288Z,63.61
2022-09-28T16:48:30.170Z,63.68
2022-09-28T16:50:58.192Z,63.66
2022-09-28T16:53:44.499Z,63.47
2022-09-28T16:56:12.848Z,63.61
2022-09-28T16:58:39.848Z,63.78
2022-09-28T17:01:10.173Z,64.06
2022-09-28T17:03:37.231Z,64.13
2022-09-28T17:06:06.408Z,64.47
2022-09-28T17:08:35.780Z,64.73
2022-09-28T17:11:14.963Z,64.18
2022-09-28T17:13:46.049Z,64.09
2022-09-28T17:16:18.063Z,63.83
2022-09-28T17:18:46.192Z,64.28
2022-09-28T17:21:16.013Z,64.44
2022-09-28T17:23:44.060Z,64.46
2022-09-28T17:26:28.111Z,64.45
2022-09-28T17:28:55.169Z,64.66
2022-09-28T17:31:22.368Z,64.48
2022-09-28T17:33:49.389Z,64.59
2022-09-28T17:36:18.438Z,64.96
2022-09-28T17:38:47.119Z,65.13
2022-09-28T17:41:20.370Z,65.27
2022-09-28T17:43:48.369Z,64.99
2022-09-28T17:46:29.105Z,65.04
2022-09-28T17:48:59.800Z,65.28
2022-09-28T17:51:28.589Z,65.27
2022-09-28T17:53:56.690Z,65.22
2022-09-28T17:56:27.568Z,65.81
2022-09-28T17:59:01.502Z,65.47
2022-09-28T18:01:34.572Z,65.27
2022-09-28T18:04:07.689Z,65.22
2022-09-28T18:06:35.410Z,65.65
2022-09-28T18:09:03.564Z,65.34
2022-09-28T18:11:30.680Z,65.18
2022-09-28T18:13:57.760Z,65.22
2022-09-28T18:16:26.219Z,65.65
2022-09-28T18:18:53.443Z,65.99
2022-09-28T18:21:20.501Z,66.41
2022-09-28T18:23:47.399Z,65.79
2022-09-28T18:26:16.977Z,66.18
2022-09-28T18:28:43.934Z,66.18
2022-09-28T18:31:13.040Z,66.81
2022-09-28T18:33:41.752Z,66.90
2022-09-28T18:36:08.811Z,66.65
2022-09-28T18:38:36.629Z,66.97
2022-09-28T18:41:10.678Z,66.99
2022-09-28T18:43:37.940Z,67.15
2022-09-28T18:46:09.624Z,67.11
2022-09-28T18:48:41.815Z,67.04
2022-09-28T18:51:11.468Z,67.26
2022-09-28T18:53:38.926Z,67.63
2022-09-28T18:56:08.521Z,67.35
2022-09-28T18:58:39.587Z,67.33
2022-09-28T19:01:29.046Z,67.36
2022-09-28T19:03:58.410Z,67.25
2022-09-28T19:06:25.589Z,67.41
2022-09-28T19:08:56.032Z,67.65
2022-09-28T19:11:24.789Z,67.46
2022-09-28T19:13:54.179Z,67.51
2022-09-28T19:16:24.371Z,67.38
2022-09-28T19:18:53.859Z,67.55
2022-09-28T19:21:21.476Z,67.50
2022-09-28T19:23:52.216Z,67.31
2022-09-28T19:26:25.868Z,67.18
2022-09-28T19:28:53.619Z,67.56
2022-09-28T19:31:20.809Z,67.59
2022-09-28T19:33:48.449Z,67.51
2022-09-28T19:36:18.608Z,67.92
2022-09-28T19:38:46.576Z,67.59
2022-09-28T19:41:42.806Z,67.69
2022-09-28T19:44:25.472Z,67.93
2022-09-28T19:46:54.048Z,68.14
2022-09-28T19:49:22.805Z,68.11
2022-09-28T19:52:11.654Z,68.17
2022-09-28T19:54:39.901Z,68.06
2022-09-28T19:57:08.902Z,67.97
2022-09-28T19:59:37.710Z,68.13
2022-09-28T20:02:08.741Z,68.46
2022-09-28T20:04:35.847Z,67.83
2022-09-28T20:07:04.354Z,68.06
2022-09-28T20:09:32.782Z,67.90
2022-09-28T20:11:59.880Z,67.94
2022-09-28T20:14:32.166Z,68.02
2022-09-28T20:17:03.826Z,67.95
2022-09-28T20:19:30.859Z,67.69
2022-09-28T20:22:02.270Z,67.86
2022-09-28T20:24:29.503Z,67.89
2022-09-28T20:26:56.538Z,68.09
2022-09-28T20:29:24.464Z,68.10
2022-09-28T20:31:52.169Z,67.90
2022-09-28T20:34:19.426Z,68.02
2022-09-28T20:36:46.530Z,68.02
2022-09-28T20:39:13.909Z,68.23
2022-09-28T20:41:41.374Z,67.93
2022-09-28T20:44:08.913Z,68.43
2022-09-28T20:46:36.644Z,68.18
2022-09-28T20:49:05.249Z,68.45
2022-09-28T20:51:32.769Z,68.23
2022-09-28T20:54:00.829Z,68.27
2022-09-28T20:56:30.799Z,68.28
2022-09-28T20:58:57.949Z,68.38
2022-09-28T21:01:27.295Z,68.58
2022-09-28T21:03:56.255Z,68.42
2022-09-28T21:06:28.517Z,68.49
2022-09-28T21:08:56.071Z,68.43
2022-09-28T21:11:26.128Z,68.43
2022-09-28T21:13:55.429Z,68.12
2022-09-28T21:16:22.361Z,68.33
2022-09-28T21:18:49.380Z,68.36
2022-09-28T21:21:19.169Z,68.49
2022-09-28T21:23:46.850Z,68.50
2022-09-28T21:26:19.069Z,68.64
2022-09-28T21:28:46.839Z,68.75
2022-09-28T21:31:14.792Z,68.75
2022-09-28T21:33:41.839Z,68.93
2022-09-28T21:36:09.273Z,68.61
2022-09-28T21:38:36.330Z,68.92
2022-09-28T21:41:03.822Z,68.96
2022-09-28T21:43:31.901Z,69.07
2022-09-28T21:45:59.108Z,68.67
2022-09-28T21:48:27.829Z,68.76
2022-09-28T21:50:58.794Z,68.81
2022-09-28T21:53:28.309Z,69.04
2022-09-28T21:55:56.697Z,68.99
2022-09-28T21:58:26.130Z,68.84
2022-09-28T22:00:59.770Z,69.04
2022-09-28T22:03:27.136Z,69.27
2022-09-28T22:05:54.310Z,69.22
2022-09-28T22:08:21.748Z,69.10
2022-09-28T22:11:07.470Z,69.21
2022-09-28T22:13:49.111Z,69.24
2022-09-28T22:16:18.040Z,69.05
2022-09-28T22:18:45.848Z,69.27
2022-09-28T22:21:15.924Z,68.82
2022-09-28T22:23:43.031Z,69.20
2022-09-28T22:26:18.170Z,69.14
2022-09-28T22:28:47.429Z,69.43
2022-09-28T22:31:15.893Z,68.99
2022-09-28T22:33:43.010Z,69.19
2022-09-28T22:36:10.279Z,69.26
2022-09-28T22:38:37.849Z,69.33
2022-09-28T22:41:04.840Z,69.68
2022-09-28T22:43:32.010Z,69.34
2022-09-28T22:46:14.256Z,69.36
2022-09-28T22:48:42.680Z,68.97
2022-09-28T22:51:10.001Z,69.49
2022-09-28T22:53:37.020Z,68.90
2022-09-28T22:56:07.749Z,69.09
2022-09-28T22:58:36.378Z,69.15
2022-09-28T23:01:22.310Z,69.54
2022-09-28T23:03:50.803Z,69.71
2022-09-28T23:06:19.080Z,69.75
2022-09-28T23:08:47.588Z,69.90
2022-09-28T23:11:15.753Z,69.65
2022-09-28T23:13:42.708Z,69.70
2022-09-28T23:16:12.873Z,69.16
2022-09-28T23:18:43.969Z,69.22
2022-09-28T23:21:15.436Z,69.37
2022-09-28T23:23:46.475Z,69.71
2022-09-28T23:26:15.908Z,69.37
2022-09-28T23:28:55.994Z,69.61
2022-09-28T23:31:26.233Z,69.87
2022-09-28T23:33:57.688Z,69.82
2022-09-28T23:36:25.527Z,69.71
2022-09-28T23:38:53.195Z,69.75
2022-09-28T23:41:20.376Z,70.15
2022-09-28T23:43:47.430Z,69.87
2022-09-28T23:46:19.679Z,69.75
2022-09-28T23:48:48.007Z,70.34
2022-09-28T23:51:14.950Z,70.05
2022-09-28T23:53:43.451Z,69.59
2022-09-28T23:56:10.528Z,69.63
2022-09-28T23:58:37.709Z,70.12
